createdAt,value
2018-08-12T00:00:28.052Z,100433.45
2018-08-12T00:02:56.992Z,100429.55
2018-08-12T00:05:24.737Z,100425.88
2018-08-12T00:07:52.672Z,100429.63
2018-08-12T00:10:20.906Z,100426.55
2018-08-12T00:12:48.610Z,100420.47
2018-08-12T00:15:19.315Z,100423.78
2018-08-12T00:17:47.091Z,100421.23
2018-08-12T00:20:17.735Z,100419.98
2018-08-12T00:22:46.197Z,100415.97
2018-08-12T00:25:18.509Z,100413.61
2018-08-12T00:27:46.121Z,100409.28
2018-08-12T00:30:16.881Z,100409.38
2018-08-12T00:32:44.593Z,100416.58
2018-08-12T00:35:14.553Z,100409.59
2018-08-12T00:37:42.442Z,100408.70
2018-08-12T00:40:13.086Z,100408.22
2018-08-12T00:42:40.826Z,100402.53
2018-08-12T00:45:11.598Z,100398.98
2018-08-12T00:47:39.261Z,100402.52
2018-08-12T00:50:08.441Z,100399.11
2018-08-12T00:52:36.133Z,100404.81
2018-08-12T00:55:05.149Z,100403.05
2018-08-12T00:57:32.798Z,100401.17
2018-08-12T01:00:00.669Z,100404.44
2018-08-12T01:02:28.356Z,100401.22
2018-08-12T01:04:56.057Z,100394.58
2018-08-12T01:07:23.850Z,100398.93
2018-08-12T01:09:51.600Z,100399.87
2018-08-12T01:12:19.386Z,100394.96
2018-08-12T01:14:47.082Z,100396.46
2018-08-12T01:17:14.781Z,100397.78
2018-08-12T01:19:42.569Z,100386.54
2018-08-12T01:22:10.240Z,100390.69
2018-08-12T01:24:38.007Z,100384.98
2018-08-12T01:27:05.697Z,100386.47
2018-08-12T01:29:33.447Z,100383.84
2018-08-12T01:32:01.140Z,100378.16
2018-08-12T01:34:28.777Z,100377.31
2018-08-12T01:36:56.477Z,100379.50
2018-08-12T01:39:24.131Z,100369.25
2018-08-12T01:41:51.853Z,100368.11
2018-08-12T01:44:19.835Z,100366.61
2018-08-12T01:46:47.470Z,100366.08
2018-08-12T01:49:15.117Z,100362.42
2018-08-12T01:51:42.845Z,100356.99
2018-08-12T01:54:10.477Z,100353.67
2018-08-12T01:56:38.133Z,100355.87
2018-08-12T01:59:06.173Z,100349.48
2018-08-12T02:01:33.904Z,100354.42
2018-08-12T02:04:04.934Z,100352.17
2018-08-12T02:06:32.577Z,100347.47
2018-08-12T02:09:00.252Z,100344.59
2018-08-12T02:11:27.926Z,100336.05
2018-08-12T02:13:55.621Z,100330.95
2018-08-12T02:16:23.397Z,100334.56
2018-08-12T02:18:50.994Z,100333.81
2018-08-12T02:21:18.641Z,100330.02
2018-08-12T02:23:46.321Z,100331.08
2018-08-12T02:26:13.945Z,100321.79
2018-08-12T02:28:41.738Z,100319.85
2018-08-12T02:31:09.382Z,100314.40
2018-08-12T02:33:37.076Z,100311.87
2018-08-12T02:36:04.749Z,100308.59
2018-08-12T02:38:32.385Z,100313.87
2018-08-12T02:41:00.058Z,100305.53
2018-08-12T02:43:27.731Z,100298.91
2018-08-12T02:45:55.397Z,100299.20
2018-08-12T02:48:23.127Z,100299.62
2018-08-12T02:50:50.759Z,100301.89
2018-08-12T02:53:18.514Z,100294.87
2018-08-12T02:55:49.185Z,100288.80
2018-08-12T02:58:16.816Z,100287.58
2018-08-12T03:00:44.598Z,100288.09
2018-08-12T03:06:19.768Z,100274.92
2018-08-12T03:08:47.468Z,100276.05
2018-08-12T03:11:15.108Z,100269.73
2018-08-12T03:13:42.801Z,100267.83
2018-08-12T03:16:10.490Z,100265.49
2018-08-12T03:18:38.121Z,100272.81
2018-08-12T03:21:06.449Z,100270.55
2018-08-12T03:23:34.211Z,100267.30
2018-08-12T03:26:02.176Z,100260.69
2018-08-12T03:28:29.821Z,100257.34
2018-08-12T03:30:57.681Z,100264.66
2018-08-12T03:33:25.450Z,100260.97
2018-08-12T03:35:53.461Z,100259.53
2018-08-12T03:38:21.089Z,100262.45
2018-08-12T03:40:48.857Z,100267.23
2018-08-12T03:43:16.532Z,100260.31
2018-08-12T03:45:44.282Z,100263.16
2018-08-12T03:48:11.953Z,100261.41
2018-08-12T03:50:39.943Z,100256.33
2018-08-12T03:53:07.704Z,100254.70
2018-08-12T03:55:35.429Z,100258.73
2018-08-12T03:58:03.089Z,100252.64
2018-08-12T04:00:30.749Z,100252.30
2018-08-12T04:02:58.421Z,100249.36
2018-08-12T04:05:26.152Z,100251.69
2018-08-12T04:07:53.861Z,100252.20
2018-08-12T04:10:24.921Z,100247.29
2018-08-12T04:12:52.710Z,100255.59
2018-08-12T04:15:20.667Z,100252.20
2018-08-12T04:17:48.377Z,100255.45
2018-08-12T04:20:16.062Z,100254.13
2018-08-12T04:22:43.836Z,100251.19
2018-08-12T04:25:11.489Z,100246.11
2018-08-12T04:27:39.125Z,100242.96
2018-08-12T04:30:08.245Z,100245.91
2018-08-12T04:32:36.065Z,100244.05
2018-08-12T04:35:05.170Z,100240.85
2018-08-12T04:37:32.882Z,100231.23
2018-08-12T04:40:00.729Z,100233.75
2018-08-12T04:42:28.405Z,100235.84
2018-08-12T04:44:56.069Z,100242.86
2018-08-12T04:47:23.782Z,100242.72
2018-08-12T04:49:51.477Z,100236.72
2018-08-12T04:52:19.138Z,100240.59
2018-08-12T04:54:46.809Z,100236.48
2018-08-12T04:57:14.441Z,100231.97
2018-08-12T04:59:42.118Z,100232.38
2018-08-12T05:02:09.860Z,100233.75
2018-08-12T05:04:37.575Z,100236.22
2018-08-12T05:07:05.653Z,100239.55
2018-08-12T05:09:33.421Z,100235.20
2018-08-12T05:12:01.152Z,100223.44
2018-08-12T05:14:28.813Z,100215.23
2018-08-12T05:16:56.471Z,100214.09
2018-08-12T05:19:24.210Z,100208.00
2018-08-12T05:21:51.890Z,100208.77
2018-08-12T05:24:19.549Z,100211.13
2018-08-12T05:26:47.177Z,100200.57
2018-08-12T05:29:14.829Z,100204.87
2018-08-12T05:31:42.609Z,100202.63
2018-08-12T05:34:10.351Z,100201.00
2018-08-12T05:36:38.018Z,100196.36
2018-08-12T05:39:09.103Z,100192.86
2018-08-12T05:41:36.801Z,100194.39
2018-08-12T05:44:04.893Z,100188.31
2018-08-12T05:46:32.721Z,100186.40
2018-08-12T05:49:00.329Z,100184.34
2018-08-12T05:51:28.088Z,100181.31
2018-08-12T05:53:55.725Z,100179.14
2018-08-12T05:56:23.361Z,100180.02
2018-08-12T05:58:51.217Z,100182.72
2018-08-12T06:01:19.009Z,100181.82
2018-08-12T06:03:47.002Z,100179.20
2018-08-12T06:06:14.703Z,100179.27
2018-08-12T06:08:42.502Z,100176.41
2018-08-12T06:11:10.630Z,100177.72
2018-08-12T06:13:38.349Z,100170.65
2018-08-12T06:16:06.135Z,100167.40
2018-08-12T06:18:33.818Z,100168.62
2018-08-12T06:21:01.625Z,100166.52
2018-08-12T06:23:29.376Z,100160.08
2018-08-12T06:25:57.107Z,100162.81
2018-08-12T06:28:24.741Z,100153.70
2018-08-12T06:30:52.415Z,100151.33
2018-08-12T06:33:20.073Z,100153.77
2018-08-12T06:35:47.749Z,100150.89
2018-08-12T06:38:15.498Z,100159.55
2018-08-12T06:40:43.505Z,100152.12
2018-08-12T06:43:11.262Z,100151.06
2018-08-12T06:45:39.059Z,100149.20
2018-08-12T06:48:06.805Z,100149.83
2018-08-12T06:50:34.576Z,100143.95
2018-08-12T06:53:02.238Z,100149.03
2018-08-12T06:55:30.041Z,100142.70
2018-08-12T06:57:57.729Z,100141.47
2018-08-12T07:00:25.441Z,100144.05
2018-08-12T07:02:53.169Z,100141.45
2018-08-12T07:05:20.809Z,100140.41
2018-08-12T07:07:48.600Z,100137.56
2018-08-12T07:10:19.629Z,100135.95
2018-08-12T07:12:47.314Z,100137.44
2018-08-12T07:15:16.298Z,100129.05
2018-08-12T07:17:44.998Z,100136.91
2018-08-12T07:20:13.150Z,100131.76
2018-08-12T07:22:41.000Z,100123.38
2018-08-12T07:25:10.535Z,100126.75
2018-08-12T07:27:39.105Z,100127.41
2018-08-12T07:30:11.282Z,100123.92
2018-08-12T07:32:38.942Z,100125.85
2018-08-12T07:35:07.737Z,100123.23
2018-08-12T07:37:36.486Z,100126.59
2018-08-12T07:40:11.586Z,100119.17
2018-08-12T07:42:39.393Z,100119.25
2018-08-12T07:45:09.625Z,100112.97
2018-08-12T07:47:37.317Z,100108.45
2018-08-12T07:50:05.809Z,100110.83
2018-08-12T07:52:33.501Z,100101.52
2018-08-12T07:55:01.346Z,100100.82
2018-08-12T07:57:29.082Z,100100.56
2018-08-12T07:59:56.731Z,100099.00
2018-08-12T08:02:24.425Z,100094.98
2018-08-12T08:04:52.073Z,100090.16
2018-08-12T08:07:19.719Z,100085.87
2018-08-12T08:09:47.420Z,100087.73
2018-08-12T08:12:18.298Z,100088.77
2018-08-12T08:14:45.997Z,100087.13
2018-08-12T08:17:13.681Z,100084.44
2018-08-12T08:19:41.474Z,100083.09
2018-08-12T08:22:09.069Z,100082.58
2018-08-12T08:24:36.709Z,100083.68
2018-08-12T08:27:04.372Z,100081.58
2018-08-12T08:29:32.405Z,100080.42
2018-08-12T08:32:00.289Z,100081.74
2018-08-12T08:34:27.777Z,100075.75
2018-08-12T08:36:55.425Z,100078.72
2018-08-12T08:39:23.121Z,100081.36
2018-08-12T08:41:50.777Z,100080.53
2018-08-12T08:44:18.381Z,100077.12
2018-08-12T08:46:46.097Z,100072.06
2018-08-12T08:49:13.737Z,100072.25
2018-08-12T08:51:41.506Z,100063.91
2018-08-12T08:54:09.230Z,100061.37
2018-08-12T08:56:36.949Z,100062.38
2018-08-12T08:59:04.653Z,100060.12
2018-08-12T09:01:33.353Z,100051.66
2018-08-12T09:06:26.854Z,100054.13
2018-08-12T09:08:55.020Z,100054.77
2018-08-12T09:11:22.597Z,100050.47
2018-08-12T09:13:50.624Z,100046.77
2018-08-12T09:16:18.339Z,100055.98
2018-08-12T09:18:50.487Z,100048.45
2018-08-12T09:21:18.293Z,100042.88
2018-08-12T09:23:45.986Z,100048.13
2018-08-12T09:26:13.710Z,100039.58
2018-08-12T09:28:41.446Z,100043.57
2018-08-12T09:31:09.151Z,100047.19
2018-08-12T09:33:36.866Z,100048.16
2018-08-12T09:36:04.731Z,100036.60
2018-08-12T09:38:32.429Z,100041.16
2018-08-12T09:41:00.119Z,100043.53
2018-08-12T09:43:27.843Z,100034.91
2018-08-12T09:45:55.610Z,100035.41
2018-08-12T09:48:23.319Z,100035.30
2018-08-12T09:50:51.063Z,100028.02
2018-08-12T09:53:18.778Z,100027.17
2018-08-12T09:55:46.503Z,100022.31
2018-08-12T09:58:14.256Z,100024.23
2018-08-12T10:00:41.947Z,100016.08
2018-08-12T10:03:10.530Z,100016.46
2018-08-12T10:05:38.494Z,100009.34
2018-08-12T10:08:06.230Z,100008.88
2018-08-12T10:10:33.938Z,100002.74
2018-08-12T10:13:01.666Z,99998.85
2018-08-12T10:15:29.483Z,99995.12
2018-08-12T10:17:58.924Z,99986.08
2018-08-12T10:20:26.878Z,99982.30
2018-08-12T10:22:54.703Z,99983.00
2018-08-12T10:25:22.443Z,99975.77
2018-08-12T10:27:50.394Z,99976.59
2018-08-12T10:30:18.335Z,99972.01
2018-08-12T10:32:46.062Z,99973.09
2018-08-12T10:35:15.190Z,99960.92
2018-08-12T10:37:43.248Z,99962.45
2018-08-12T10:40:15.270Z,99953.31
2018-08-12T10:42:44.124Z,99944.18
2018-08-12T10:45:12.270Z,99945.62
2018-08-12T10:47:40.542Z,99944.33
2018-08-12T10:50:11.446Z,99938.87
2018-08-12T10:52:40.319Z,99941.94
2018-08-12T10:55:08.574Z,99933.27
2018-08-12T10:57:36.946Z,99930.09
2018-08-12T11:00:15.379Z,99922.66
2018-08-12T11:02:43.461Z,99922.83
2018-08-12T11:05:11.519Z,99924.46
2018-08-12T11:07:39.299Z,99915.20
2018-08-12T11:10:08.269Z,99912.13
2018-08-12T11:12:36.112Z,99901.63
2018-08-12T11:15:05.294Z,99902.91
2018-08-12T11:17:33.015Z,99904.32
2018-08-12T11:20:00.926Z,99894.00
2018-08-12T11:22:28.651Z,99888.66
2018-08-12T11:24:56.458Z,99887.79
2018-08-12T11:27:24.187Z,99884.27
2018-08-12T11:29:52.039Z,99878.16
2018-08-12T11:32:19.748Z,99872.20
2018-08-12T11:34:47.489Z,99868.98
2018-08-12T11:37:15.190Z,99867.28
2018-08-12T11:39:42.882Z,99859.59
2018-08-12T11:42:10.618Z,99865.80
2018-08-12T11:44:38.367Z,99865.59
2018-08-12T11:47:06.103Z,99856.98
2018-08-12T11:49:33.893Z,99851.13
2018-08-12T11:52:01.858Z,99844.66
2018-08-12T11:54:29.626Z,99847.19
2018-08-12T11:56:57.548Z,99839.52
2018-08-12T11:59:25.222Z,99835.70
2018-08-12T12:01:53.111Z,99834.19
2018-08-12T12:04:24.466Z,99828.88
2018-08-12T12:06:52.131Z,99830.13
2018-08-12T12:09:19.879Z,99820.58
2018-08-12T12:11:47.574Z,99825.05
2018-08-12T12:14:15.275Z,99816.36
2018-08-12T12:16:43.214Z,99814.61
2018-08-12T12:19:10.894Z,99815.73
2018-08-12T12:21:38.622Z,99810.00
2018-08-12T12:24:06.374Z,99807.94
2018-08-12T12:26:34.091Z,99808.80
2018-08-12T12:29:01.866Z,99805.92
2018-08-12T12:31:29.566Z,99798.69
2018-08-12T12:33:57.323Z,99796.73
2018-08-12T12:36:25.066Z,99797.92
2018-08-12T12:38:52.766Z,99796.95
2018-08-12T12:41:20.750Z,99793.58
2018-08-12T12:43:48.473Z,99795.84
2018-08-12T12:46:16.194Z,99797.22
2018-08-12T12:48:44.182Z,99782.37
2018-08-12T12:51:11.890Z,99773.08
2018-08-12T12:53:39.672Z,99783.72
2018-08-12T12:56:07.444Z,99775.45
2018-08-12T12:58:35.178Z,99763.03
2018-08-12T13:01:02.932Z,99758.98
2018-08-12T13:03:30.879Z,99758.50
2018-08-12T13:05:58.638Z,99754.30
2018-08-12T13:08:26.315Z,99756.92
2018-08-12T13:10:54.052Z,99750.92
2018-08-12T13:13:21.791Z,99746.53
2018-08-12T13:15:49.519Z,99738.91
2018-08-12T13:18:17.238Z,99737.98
2018-08-12T13:20:44.954Z,99734.31
2018-08-12T13:23:12.677Z,99736.06
2018-08-12T13:25:43.756Z,99727.56
2018-08-12T13:28:11.619Z,99716.17
2018-08-12T13:30:39.707Z,99713.80
2018-08-12T13:33:07.500Z,99712.89
2018-08-12T13:35:35.271Z,99704.40
2018-08-12T13:38:03.031Z,99700.73
2018-08-12T13:40:30.746Z,99706.45
2018-08-12T13:42:58.470Z,99700.05
2018-08-12T13:45:26.280Z,99699.59
2018-08-12T13:47:54.015Z,99693.54
2018-08-12T13:50:23.261Z,99688.23
2018-08-12T13:52:51.626Z,99683.19
2018-08-12T13:55:20.012Z,99676.41
2018-08-12T13:57:48.803Z,99680.88
2018-08-12T14:00:19.006Z,99675.17
2018-08-12T14:02:46.748Z,99668.38
2018-08-12T14:05:16.406Z,99660.20
2018-08-12T14:07:44.886Z,99661.47
2018-08-12T14:10:12.686Z,99656.48
2018-08-12T14:12:40.590Z,99652.24
2018-08-12T14:15:11.496Z,99650.40
2018-08-12T14:17:40.011Z,99646.11
2018-08-12T14:20:08.990Z,99643.53
2018-08-12T14:22:36.888Z,99637.08
2018-08-12T14:25:05.350Z,99642.34
2018-08-12T14:27:33.210Z,99636.59
2018-08-12T14:30:01.211Z,99632.42
2018-08-12T14:32:28.887Z,99627.63
2018-08-12T14:34:56.696Z,99624.55
2018-08-12T14:37:24.816Z,99623.06
2018-08-12T14:39:52.548Z,99614.56
2018-08-12T14:42:20.286Z,99613.97
2018-08-12T14:44:48.061Z,99616.50
2018-08-12T14:47:15.729Z,99605.31
2018-08-12T14:49:43.637Z,99598.63
2018-08-12T14:52:11.271Z,99596.81
2018-08-12T14:54:38.945Z,99599.16
2018-08-12T14:57:06.574Z,99588.66
2018-08-12T14:59:34.338Z,99581.58
2018-08-12T15:02:02.194Z,99588.83
2018-08-12T15:04:29.863Z,99581.19
2018-08-12T15:06:57.525Z,99584.44
2018-08-12T15:09:25.180Z,99579.02
2018-08-12T15:11:52.894Z,99575.68
2018-08-12T15:14:20.587Z,99571.75
2018-08-12T15:16:48.349Z,99574.44
2018-08-12T15:19:16.054Z,99565.05
2018-08-12T15:21:43.775Z,99557.41
2018-08-12T15:24:11.437Z,99559.19
2018-08-12T15:26:39.105Z,99549.05
2018-08-12T15:29:06.797Z,99549.70
2018-08-12T15:31:34.441Z,99550.49
2018-08-12T15:34:02.125Z,99548.59
2018-08-12T15:36:29.773Z,99547.64
2018-08-12T15:38:57.441Z,99549.30
2018-08-12T15:41:25.236Z,99540.07
2018-08-12T15:43:53.029Z,99536.87
2018-08-12T15:46:20.670Z,99532.09
2018-08-12T15:48:48.317Z,99529.33
2018-08-12T15:51:16.075Z,99534.58
2018-08-12T15:53:43.693Z,99527.06
2018-08-12T15:56:11.397Z,99519.97
2018-08-12T15:58:39.148Z,99521.16
2018-08-12T16:01:06.849Z,99513.52
2018-08-12T16:03:34.690Z,99511.80
2018-08-12T16:06:02.378Z,99507.98
2018-08-12T16:08:30.022Z,99511.72
2018-08-12T16:10:57.782Z,99503.13
2018-08-12T16:13:25.543Z,99506.73
2018-08-12T16:15:53.320Z,99499.53
2018-08-12T16:18:21.007Z,99496.49
2018-08-12T16:20:48.761Z,99499.36
2018-08-12T16:23:16.443Z,99499.30
2018-08-12T16:25:44.153Z,99492.83
2018-08-12T16:28:11.821Z,99486.70
2018-08-12T16:30:39.642Z,99481.38
2018-08-12T16:33:07.302Z,99473.73
2018-08-12T16:35:35.026Z,99482.95
2018-08-12T16:38:02.707Z,99479.89
2018-08-12T16:40:30.365Z,99473.33
2018-08-12T16:42:58.137Z,99462.05
2018-08-12T16:45:25.868Z,99458.92
2018-08-12T16:47:53.553Z,99455.99
2018-08-12T16:50:21.293Z,99449.95
2018-08-12T16:52:48.957Z,99453.22
2018-08-12T16:55:17.549Z,99451.05
2018-08-12T16:57:46.149Z,99443.89
2018-08-12T17:00:17.104Z,99441.76
2018-08-12T17:02:45.026Z,99434.49
2018-08-12T17:05:17.725Z,99435.23
2018-08-12T17:07:45.497Z,99433.70
2018-08-12T17:10:14.558Z,99433.06
2018-08-12T17:12:42.269Z,99425.11
2018-08-12T17:15:13.757Z,99424.55
2018-08-12T17:17:41.345Z,99419.39
2018-08-12T17:20:12.046Z,99420.51
2018-08-12T17:22:40.701Z,99421.30
2018-08-12T17:25:08.326Z,99414.93
2018-08-12T17:27:36.186Z,99415.40
2018-08-12T17:30:05.830Z,99409.37
2018-08-12T17:32:33.609Z,99406.48
2018-08-12T17:35:01.241Z,99407.08
2018-08-12T17:37:29.539Z,99410.67
2018-08-12T17:39:57.205Z,99399.38
2018-08-12T17:42:28.478Z,99405.32
2018-08-12T17:44:56.145Z,99399.67
2018-08-12T17:47:23.789Z,99401.67
2018-08-12T17:49:51.483Z,99404.28
2018-08-12T17:52:19.208Z,99391.70
2018-08-12T17:54:46.878Z,99393.76
2018-08-12T17:57:14.551Z,99398.59
2018-08-12T17:59:42.185Z,99392.95
2018-08-12T18:02:10.030Z,99392.63
2018-08-12T18:04:37.657Z,99391.60
2018-08-12T18:07:05.328Z,99395.89
2018-08-12T18:09:33.334Z,99397.32
2018-08-12T18:12:01.514Z,99392.29
2018-08-12T18:14:29.291Z,99399.50
2018-08-12T18:16:56.934Z,99395.34
2018-08-12T18:19:24.577Z,99398.57
2018-08-12T18:21:52.241Z,99392.82
2018-08-12T18:24:19.902Z,99397.40
2018-08-12T18:26:47.578Z,99398.09
2018-08-12T18:29:15.234Z,99403.84
2018-08-12T18:31:42.898Z,99408.06
2018-08-12T18:34:10.554Z,99404.39
2018-08-12T18:36:38.225Z,99400.66
2018-08-12T18:39:08.751Z,99399.56
2018-08-12T18:41:36.412Z,99406.42
2018-08-12T18:44:04.105Z,99410.02
2018-08-12T18:46:31.813Z,99413.30
2018-08-12T18:48:59.485Z,99415.44
2018-08-12T18:51:27.173Z,99414.81
2018-08-12T18:53:55.481Z,99416.63
2018-08-12T18:56:23.193Z,99414.18
2018-08-12T18:58:51.081Z,99420.03
2018-08-12T19:01:18.763Z,99418.00
2018-08-12T19:03:46.382Z,99419.80
2018-08-12T19:06:14.018Z,99425.14
2018-08-12T19:08:41.690Z,99424.23
2018-08-12T19:11:09.376Z,99424.87
2018-08-12T19:13:37.033Z,99424.45
2018-08-12T19:16:05.047Z,99420.27
2018-08-12T19:18:32.718Z,99422.84
2018-08-12T19:21:00.386Z,99427.01
2018-08-12T19:23:28.345Z,99421.17
2018-08-12T19:25:56.104Z,99433.70
2018-08-12T19:28:23.706Z,99433.11
2018-08-12T19:30:51.385Z,99428.70
2018-08-12T19:33:19.023Z,99426.23
2018-08-12T19:37:45.685Z,99428.05
2018-08-12T19:40:13.515Z,99422.88
2018-08-12T19:42:41.351Z,99427.33
2018-08-12T19:45:10.207Z,99429.77
2018-08-12T19:47:38.042Z,99430.61
2018-08-12T19:50:06.625Z,99425.03
2018-08-12T19:52:34.582Z,99428.84
2018-08-12T19:55:02.354Z,99430.48
2018-08-12T19:57:30.168Z,99426.46
2018-08-12T19:59:58.713Z,99425.70
2018-08-12T20:02:26.491Z,99428.17
2018-08-12T20:04:54.160Z,99428.42
2018-08-12T20:07:23.062Z,99427.11
2018-08-12T20:09:50.982Z,99432.73
2018-08-12T20:12:18.841Z,99432.81
2018-08-12T20:14:46.546Z,99431.53
2018-08-12T20:17:14.274Z,99432.34
2018-08-12T20:19:42.093Z,99437.92
2018-08-12T20:22:13.818Z,99441.50
2018-08-12T20:24:41.986Z,99436.42
2018-08-12T20:27:10.363Z,99436.45
2018-08-12T20:29:38.183Z,99439.30
2018-08-12T20:32:06.586Z,99437.41
2018-08-12T20:34:34.431Z,99437.41
2018-08-12T20:37:02.155Z,99438.75
2018-08-12T20:39:29.928Z,99439.04
2018-08-12T20:41:57.942Z,99444.76
2018-08-12T20:44:25.711Z,99449.86
2018-08-12T20:46:53.373Z,99457.94
2018-08-12T20:49:21.021Z,99453.69
2018-08-12T20:51:48.709Z,99463.88
2018-08-12T20:54:16.491Z,99462.88
2018-08-12T20:56:44.173Z,99461.86
2018-08-12T20:59:11.985Z,99457.89
2018-08-12T21:01:39.638Z,99460.27
2018-08-12T21:04:07.689Z,99458.63
2018-08-12T21:06:35.357Z,99454.55
2018-08-12T21:09:05.173Z,99454.91
2018-08-12T21:11:32.871Z,99456.06
2018-08-12T21:14:00.721Z,99455.54
2018-08-12T21:16:28.623Z,99455.49
2018-08-12T21:19:00.872Z,99457.34
2018-08-12T21:21:28.550Z,99453.92
2018-08-12T21:23:56.239Z,99454.48
2018-08-12T21:26:23.927Z,99455.27
2018-08-12T21:28:51.775Z,99454.48
2018-08-12T21:31:19.945Z,99455.33
2018-08-12T21:33:47.631Z,99463.09
2018-08-12T21:36:15.353Z,99457.50
2018-08-12T21:38:43.093Z,99464.16
2018-08-12T21:41:10.827Z,99473.02
2018-08-12T21:43:38.585Z,99467.95
2018-08-12T21:46:06.734Z,99468.73
2018-08-12T21:48:34.409Z,99465.80
2018-08-12T21:51:02.215Z,99466.31
2018-08-12T21:53:29.888Z,99467.95
2018-08-12T21:55:58.053Z,99468.73
2018-08-12T21:58:25.717Z,99467.17
2018-08-12T22:00:54.097Z,99458.86
2018-08-12T22:03:21.901Z,99466.31
2018-08-12T22:05:49.813Z,99464.50
2018-08-12T22:08:17.638Z,99467.45
2018-08-12T22:10:45.354Z,99462.33
2018-08-12T22:13:13.070Z,99463.38
2018-08-12T22:15:40.777Z,99462.02
2018-08-12T22:18:09.171Z,99458.05
2018-08-12T22:20:36.957Z,99449.43
2018-08-12T22:23:04.717Z,99444.37
2018-08-12T22:25:32.417Z,99448.88
2018-08-12T22:28:00.107Z,99448.11
2018-08-12T22:30:27.803Z,99449.21
2018-08-12T22:32:55.504Z,99449.00
2018-08-12T22:35:23.162Z,99440.89
2018-08-12T22:37:50.834Z,99438.28
2018-08-12T22:40:18.506Z,99440.48
2018-08-12T22:42:46.451Z,99433.77
2018-08-12T22:45:14.133Z,99427.00
2018-08-12T22:47:41.893Z,99431.58
2018-08-12T22:50:09.604Z,99426.50
2018-08-12T22:52:37.353Z,99419.53
2018-08-12T22:55:05.945Z,99421.70
2018-08-12T22:57:33.750Z,99417.98
2018-08-12T23:00:01.455Z,99416.16
2018-08-12T23:02:29.150Z,99415.09
2018-08-12T23:04:57.253Z,99413.75
2018-08-12T23:07:28.466Z,99415.67
2018-08-12T23:09:56.166Z,99411.09
2018-08-12T23:12:23.903Z,99408.95
2018-08-12T23:14:51.618Z,99409.76
2018-08-12T23:17:19.346Z,99405.48
2018-08-12T23:19:47.009Z,99399.05
2018-08-12T23:22:14.718Z,99395.55
2018-08-12T23:24:42.405Z,99390.20
2018-08-12T23:27:10.066Z,99389.97
2018-08-12T23:29:37.742Z,99388.36
2018-08-12T23:32:05.446Z,99390.52
2018-08-12T23:34:33.096Z,99388.38
2018-08-12T23:37:01.573Z,99381.39
2018-08-12T23:39:29.257Z,99384.62
2018-08-12T23:41:56.917Z,99377.94
2018-08-12T23:44:24.819Z,99375.55
2018-08-12T23:46:52.502Z,99378.22
2018-08-12T23:49:20.185Z,99374.77
2018-08-12T23:51:47.872Z,99373.12
2018-08-12T23:54:15.534Z,99369.66
2018-08-12T23:56:43.173Z,99365.67
2018-08-12T23:59:10.989Z,99366.73
